createdAt,value
2022-12-31T00:04:53.561Z,82.19
2022-12-31T00:09:51.390Z,82.54
2022-12-31T00:14:51.504Z,82.38
2022-12-31T00:19:51.479Z,82.53
2022-12-31T00:24:51.458Z,82.30
2022-12-31T00:29:51.355Z,82.21
2022-12-31T00:34:51.538Z,83.06
2022-12-31T00:39:51.363Z,83.35
2022-12-31T00:44:51.521Z,82.56
2022-12-31T00:49:52.550Z,82.91
2022-12-31T00:54:51.340Z,83.04
2022-12-31T00:59:51.386Z,83.10
2022-12-31T01:04:51.636Z,83.86
2022-12-31T01:09:52.874Z,83.61
2022-12-31T01:14:51.395Z,83.72
2022-12-31T01:19:51.709Z,83.21
2022-12-31T01:24:51.294Z,83.57
2022-12-31T01:29:51.593Z,83.77
2022-12-31T01:34:51.820Z,83.92
2022-12-31T01:39:51.359Z,83.01
2022-12-31T01:44:54.500Z,83.92
2022-12-31T01:49:57.303Z,84.12
2022-12-31T01:54:58.722Z,83.40
2022-12-31T01:59:54.014Z,83.43
2022-12-31T02:04:56.736Z,83.31
2022-12-31T02:09:53.315Z,83.01
2022-12-31T02:14:53.405Z,82.69
2022-12-31T02:20:06.432Z,82.28
2022-12-31T02:25:08.303Z,82.40
2022-12-31T02:30:01.564Z,81.73
2022-12-31T02:34:56.534Z,81.69
2022-12-31T02:39:51.964Z,81.32
2022-12-31T02:44:51.270Z,80.96
2022-12-31T02:50:04.273Z,80.90
2022-12-31T02:55:00.730Z,80.86
2022-12-31T03:00:06.943Z,80.83
2022-12-31T03:04:53.393Z,80.66
2022-12-31T03:09:52.029Z,80.37
2022-12-31T03:14:52.279Z,80.23
2022-12-31T03:20:01.729Z,80.05
2022-12-31T03:25:01.149Z,79.77
2022-12-31T03:29:51.231Z,79.45
2022-12-31T03:34:51.433Z,79.39
2022-12-31T03:39:51.255Z,79.06
2022-12-31T03:44:51.243Z,78.59
2022-12-31T03:49:51.565Z,78.25
2022-12-31T03:54:51.197Z,77.99
2022-12-31T03:59:51.351Z,77.38
2022-12-31T04:04:51.388Z,77.17
2022-12-31T04:09:51.205Z,76.74
2022-12-31T04:14:51.316Z,76.74
2022-12-31T04:19:51.729Z,76.66
2022-12-31T04:24:51.366Z,76.45
2022-12-31T04:29:51.343Z,76.15
2022-12-31T04:34:51.376Z,76.14
2022-12-31T04:39:51.191Z,76.07
2022-12-31T04:44:51.170Z,75.93
2022-12-31T04:49:51.732Z,75.75
2022-12-31T04:54:51.200Z,75.69
2022-12-31T04:59:51.192Z,75.69
2022-12-31T05:04:51.548Z,75.61
2022-12-31T05:09:51.108Z,75.54
2022-12-31T05:14:51.147Z,75.40
2022-12-31T05:19:51.520Z,75.54
2022-12-31T05:24:51.359Z,75.40
2022-12-31T05:29:51.216Z,75.36
2022-12-31T05:34:52.615Z,75.17
2022-12-31T05:39:51.181Z,75.16
2022-12-31T05:44:51.562Z,74.95
2022-12-31T05:49:51.591Z,75.27
2022-12-31T05:54:51.324Z,74.95
2022-12-31T05:59:52.551Z,75.10
2022-12-31T06:04:51.343Z,75.41
2022-12-31T06:09:51.539Z,75.36
2022-12-31T06:14:51.261Z,75.75
2022-12-31T06:19:51.852Z,76.06
2022-12-31T06:24:51.094Z,76.34
2022-12-31T06:29:51.309Z,76.79
2022-12-31T06:34:51.227Z,76.47
2022-12-31T06:39:51.221Z,77.26
2022-12-31T06:44:51.064Z,77.17
2022-12-31T06:49:52.232Z,76.84
2022-12-31T06:54:51.597Z,77.01
2022-12-31T06:59:51.921Z,77.01
2022-12-31T07:05:04.530Z,76.76
2022-12-31T07:09:58.357Z,77.17
2022-12-31T07:14:57.002Z,77.30
2022-12-31T07:20:00.216Z,77.00
2022-12-31T07:24:51.454Z,76.94
2022-12-31T07:30:00.861Z,76.69
2022-12-31T07:35:00.668Z,76.60
2022-12-31T07:40:02.128Z,76.86
2022-12-31T07:44:58.382Z,76.54
2022-12-31T07:49:52.173Z,76.66
2022-12-31T07:54:51.220Z,76.30
2022-12-31T07:59:56.678Z,76.20
2022-12-31T08:05:05.473Z,76.16
2022-12-31T08:10:01.554Z,76.17
2022-12-31T08:14:51.511Z,75.65
2022-12-31T08:19:51.848Z,75.20
2022-12-31T08:24:59.680Z,75.04
2022-12-31T08:30:01.541Z,75.04
2022-12-31T08:35:02.297Z,74.79
2022-12-31T08:40:05.944Z,74.84
2022-12-31T08:44:59.651Z,74.62
2022-12-31T08:49:51.660Z,74.61
2022-12-31T08:54:52.033Z,74.67
2022-12-31T08:59:59.796Z,74.48
2022-12-31T09:05:03.340Z,74.29
2022-12-31T09:10:02.178Z,74.05
2022-12-31T09:14:58.172Z,73.76
2022-12-31T09:19:51.606Z,73.26
2022-12-31T09:24:51.703Z,72.83
2022-12-31T09:30:00.588Z,72.27
2022-12-31T09:34:55.653Z,71.99
2022-12-31T09:39:53.799Z,70.53
2022-12-31T09:45:11.068Z,68.65
2022-12-31T09:50:12.816Z,65.50
2022-12-31T09:54:54.278Z,59.70
2022-12-31T09:59:57.402Z,61.66
2022-12-31T10:05:00.568Z,57.12
2022-12-31T10:10:01.893Z,57.12
2022-12-31T10:15:05.720Z,60.02
2022-12-31T10:20:08.302Z,61.41
2022-12-31T10:25:05.240Z,55.45
2022-12-31T10:29:58.022Z,50.79
2022-12-31T10:34:55.546Z,52.64
2022-12-31T10:39:55.730Z,51.14
2022-12-31T10:45:11.027Z,48.61
2022-12-31T10:50:10.778Z,52.08
2022-12-31T10:55:10.782Z,56.08
2022-12-31T11:00:09.589Z,57.96
2022-12-31T11:05:10.765Z,59.83
2022-12-31T11:10:11.011Z,60.25
2022-12-31T11:15:03.143Z,60.71
2022-12-31T11:20:01.797Z,60.56
2022-12-31T11:25:05.335Z,60.09
2022-12-31T11:30:04.348Z,61.37
2022-12-31T11:35:04.756Z,62.20
2022-12-31T11:40:00.636Z,63.44
2022-12-31T11:44:58.357Z,64.34
2022-12-31T11:50:09.553Z,64.59
2022-12-31T11:55:01.155Z,64.98
2022-12-31T11:59:55.826Z,65.03
2022-12-31T12:04:52.371Z,65.51
2022-12-31T12:09:53.619Z,65.35
2022-12-31T12:14:53.245Z,65.96
2022-12-31T12:19:54.121Z,66.30
2022-12-31T12:24:53.022Z,66.08
2022-12-31T12:29:50.994Z,66.09
2022-12-31T12:34:51.642Z,66.61
2022-12-31T12:39:55.493Z,67.52
2022-12-31T12:44:59.963Z,70.48
2022-12-31T12:49:53.251Z,73.03
2022-12-31T12:55:05.725Z,71.97
2022-12-31T13:00:05.411Z,74.16
2022-12-31T13:05:07.125Z,73.61
2022-12-31T13:10:08.320Z,73.71
2022-12-31T13:14:57.995Z,74.66
2022-12-31T13:19:57.537Z,74.61
2022-12-31T13:24:58.927Z,75.02
2022-12-31T13:29:54.190Z,74.64
2022-12-31T13:34:55.900Z,75.30
2022-12-31T13:40:00.728Z,75.48
2022-12-31T13:44:55.194Z,75.74
2022-12-31T13:49:56.670Z,76.15
2022-12-31T13:54:57.553Z,75.33
2022-12-31T13:59:57.824Z,75.40
2022-12-31T14:04:55.375Z,75.47
2022-12-31T14:09:51.909Z,75.51
2022-12-31T14:15:02.491Z,75.01
2022-12-31T14:20:00.012Z,74.62
2022-12-31T14:24:51.331Z,74.57
2022-12-31T14:29:56.050Z,74.28
2022-12-31T14:35:01.567Z,74.20
2022-12-31T14:39:57.886Z,73.97
2022-12-31T14:45:03.838Z,73.63
2022-12-31T14:50:03.032Z,73.22
2022-12-31T14:55:02.098Z,73.00
2022-12-31T14:59:54.208Z,72.82
2022-12-31T15:05:03.800Z,72.69
2022-12-31T15:10:08.435Z,72.43
2022-12-31T15:15:08.797Z,72.31
2022-12-31T15:20:14.943Z,72.03
2022-12-31T15:24:51.218Z,72.00
2022-12-31T15:29:51.069Z,71.83
2022-12-31T15:35:01.213Z,71.68
2022-12-31T15:39:50.873Z,71.66
2022-12-31T15:44:56.787Z,71.52
2022-12-31T15:49:53.614Z,71.45
2022-12-31T15:54:54.885Z,71.30
2022-12-31T15:59:57.355Z,71.26
2022-12-31T16:04:52.021Z,71.22
2022-12-31T16:09:53.285Z,71.01
2022-12-31T16:14:53.079Z,71.10
2022-12-31T16:19:51.157Z,70.96
2022-12-31T16:25:28.531Z,70.91
2022-12-31T16:29:57.734Z,70.87
2022-12-31T16:34:53.777Z,70.80
2022-12-31T16:40:10.503Z,70.72
2022-12-31T16:44:52.287Z,70.77
2022-12-31T16:49:59.109Z,70.64
2022-12-31T16:54:52.419Z,70.87
2022-12-31T16:59:53.760Z,70.91
2022-12-31T17:04:55.965Z,70.98
2022-12-31T17:10:01.038Z,71.31
2022-12-31T17:14:50.812Z,71.30
2022-12-31T17:19:56.712Z,71.50
2022-12-31T17:24:57.959Z,71.74
2022-12-31T17:29:50.747Z,71.86
2022-12-31T17:34:51.051Z,71.84
2022-12-31T17:39:52.674Z,71.79
2022-12-31T17:44:54.381Z,71.80
2022-12-31T17:49:52.633Z,71.78
2022-12-31T17:54:50.685Z,71.76
2022-12-31T17:59:50.838Z,71.72
2022-12-31T18:04:52.197Z,71.62
2022-12-31T18:09:50.661Z,71.71
2022-12-31T18:14:50.698Z,71.75
2022-12-31T18:20:06.037Z,71.61
2022-12-31T18:24:53.414Z,71.60
2022-12-31T18:29:50.894Z,71.38
2022-12-31T18:34:52.126Z,71.49
2022-12-31T18:39:50.644Z,71.38
2022-12-31T18:44:50.740Z,71.37
2022-12-31T18:49:51.357Z,71.19
2022-12-31T18:54:50.571Z,71.14
2022-12-31T18:59:50.676Z,70.94
2022-12-31T19:04:51.167Z,70.96
2022-12-31T19:09:56.337Z,70.79
2022-12-31T19:14:50.692Z,70.50
2022-12-31T19:19:50.819Z,70.40
2022-12-31T19:24:50.600Z,70.28
2022-12-31T19:29:50.976Z,70.13
2022-12-31T19:34:50.757Z,70.14
2022-12-31T19:39:50.604Z,70.19
2022-12-31T19:44:50.632Z,70.31
2022-12-31T19:49:50.899Z,70.40
2022-12-31T19:54:50.517Z,70.48
2022-12-31T19:59:50.565Z,70.49
2022-12-31T20:04:50.707Z,70.54
2022-12-31T20:09:50.550Z,70.63
2022-12-31T20:14:50.704Z,70.55
2022-12-31T20:19:51.024Z,70.52
2022-12-31T20:24:50.593Z,70.47
2022-12-31T20:29:50.542Z,70.46
2022-12-31T20:34:50.871Z,70.32
2022-12-31T20:39:50.508Z,70.38
2022-12-31T20:44:50.655Z,70.27
2022-12-31T20:50:10.897Z,70.35
2022-12-31T20:54:50.520Z,70.31
2022-12-31T20:59:50.575Z,70.29
2022-12-31T21:04:51.374Z,70.31
2022-12-31T21:09:50.489Z,70.39
2022-12-31T21:14:50.702Z,70.35
2022-12-31T21:19:50.846Z,70.36
2022-12-31T21:24:50.605Z,70.32
2022-12-31T21:30:17.678Z,70.37
2022-12-31T21:35:14.490Z,70.40
2022-12-31T21:39:50.497Z,70.47
2022-12-31T21:44:50.617Z,70.49
2022-12-31T21:49:50.902Z,70.62
2022-12-31T21:55:00.650Z,70.53
2022-12-31T22:00:31.867Z,70.58
2022-12-31T22:05:03.023Z,70.59
2022-12-31T22:09:50.486Z,70.56
2022-12-31T22:15:15.824Z,70.63
2022-12-31T22:20:17.522Z,70.67
2022-12-31T22:24:50.681Z,70.69
2022-12-31T22:29:50.443Z,70.75
2022-12-31T22:34:50.908Z,70.75
2022-12-31T22:39:50.530Z,70.67
2022-12-31T22:44:50.603Z,70.75
2022-12-31T22:49:50.811Z,70.70
2022-12-31T22:54:50.694Z,70.76
2022-12-31T22:59:51.043Z,70.76
2022-12-31T23:04:50.686Z,70.63
2022-12-31T23:10:00.429Z,70.58
2022-12-31T23:15:00.723Z,70.66
2022-12-31T23:20:00.858Z,70.57
2022-12-31T23:24:50.496Z,70.40
2022-12-31T23:29:50.474Z,70.29
2022-12-31T23:34:51.449Z,70.36
2022-12-31T23:39:50.392Z,70.38
2022-12-31T23:44:50.559Z,70.36
2022-12-31T23:49:50.528Z,70.26
2022-12-31T23:54:50.470Z,70.19
2022-12-31T23:59:50.551Z,70.18
